Time;durP1;ratioP1;P1;durP2;ratioP2;P2;SDS_P1;SDS_P2;PMS_P1;PMS_P2;Temp;Humidity;BMP_temperature;BMP_pressure;BME280_temperature;BME280_humidity;BME280_pressure;Samples;Min_cycle;Max_cycle;Signal;HPM_P1;HPM_P2
2021/06/06 00:01:42;;;;;;;12.93;7.80;;;512.70;1894.40;;;;;;5096937;28;20024;-89
2021/06/06 00:04:18;;;;;;;11.18;8.73;;;512.70;1894.40;;;;;;5090466;28;20538;-88
2021/06/06 00:06:44;;;;;;;11.45;7.97;;;512.70;1920.00;;;;;;5092516;28;20047;-89
2021/06/06 00:09:14;;;;;;;12.68;8.30;;;512.60;1945.60;;;;;;5091783;28;20035;-89
2021/06/06 00:11:47;;;;;;;12.50;8.88;;;512.60;1945.60;;;;;;5091435;28;20023;-90
2021/06/06 00:14:17;;;;;;;11.90;8.13;;;512.50;1971.20;;;;;;5085888;28;20020;-86
2021/06/06 00:16:46;;;;;;;15.82;8.40;;;512.50;1971.20;;;;;;5091963;28;20144;-88
2021/06/06 00:19:14;;;;;;;11.20;7.25;;;512.50;1971.20;;;;;;5100830;28;20503;-88
2021/06/06 00:21:41;;;;;;;8.75;7.20;;;512.30;1996.80;;;;;;5085319;28;20035;-90
2021/06/06 00:24:10;;;;;;;11.50;6.82;;;512.50;1996.80;;;;;;5101177;28;20028;-90
2021/06/06 00:26:36;;;;;;;9.70;7.28;;;512.40;1996.80;;;;;;5097270;28;20114;-89
2021/06/06 00:29:03;;;;;;;12.80;7.20;;;512.40;2022.40;;;;;;5089312;28;20146;-89
2021/06/06 00:31:28;;;;;;;11.70;8.13;;;512.30;2048.00;;;;;;5092152;28;20020;-89
2021/06/06 00:33:54;;;;;;;11.35;7.93;;;512.30;2073.60;;;;;;5091953;28;20427;-89
2021/06/06 00:36:21;;;;;;;12.20;7.50;;;512.20;2073.60;;;;;;5091071;28;20028;-88
2021/06/06 00:38:47;;;;;;;7.93;6.45;;;512.20;2073.60;;;;;;5090053;28;20024;-87
2021/06/06 00:41:14;;;;;;;12.63;7.07;;;512.20;2073.60;;;;;;5086688;28;20027;-87
2021/06/06 00:43:41;;;;;;;12.70;6.40;;;512.10;2099.20;;;;;;5097608;28;20084;-87
2021/06/06 00:46:08;;;;;;;8.95;7.07;;;512.20;2099.20;;;;;;5084796;28;20055;-90
2021/06/06 00:48:34;;;;;;;9.75;7.80;;;512.00;2099.20;;;;;;5088736;28;20040;-88
2021/06/06 00:51:09;;;;;;;9.80;7.80;;;512.10;2124.80;;;;;;5092282;28;20028;-88
2021/06/06 00:53:39;;;;;;;13.13;7.45;;;512.00;2124.80;;;;;;5090387;28;20048;-86
2021/06/06 00:56:11;;;;;;;10.68;8.40;;;487.30;2124.80;;;;;;5095462;28;20043;-87
2021/06/06 00:58:38;;;;;;;10.98;8.40;;;512.00;2124.80;;;;;;5094206;28;20027;-90
2021/06/06 01:01:04;;;;;;;8.68;7.07;;;512.10;2124.80;;;;;;5097191;28;20031;-86
2021/06/06 01:03:30;;;;;;;12.57;7.97;;;512.00;2124.80;;;;;;5092912;28;20052;-87
2021/06/06 01:06:05;;;;;;;10.40;7.75;;;512.00;2124.80;;;;;;5094088;28;20452;-87
2021/06/06 01:08:34;;;;;;;9.85;7.82;;;512.00;2124.80;;;;;;5090926;28;20036;-88
2021/06/06 01:11:08;;;;;;;10.82;7.38;;;512.00;2124.80;;;;;;5088242;28;20024;-88
2021/06/06 01:13:45;;;;;;;7.82;6.72;;;512.00;2124.80;;;;;;5091735;28;20496;-86
2021/06/06 01:16:57;;;;;;;11.02;7.85;;;487.30;2124.80;;;;;;5085989;28;20067;-87
2021/06/06 01:19:34;;;;;;;9.32;6.80;;;487.30;2150.40;;;;;;4994754;28;20088;-88
2021/06/06 01:22:18;;;;;;;11.02;7.13;;;487.30;2150.40;;;;;;4995207;28;20402;-86
2021/06/06 01:24:48;;;;;;;10.57;7.13;;;487.30;2150.40;;;;;;4997416;28;20544;-86
2021/06/06 01:27:20;;;;;;;9.68;6.30;;;487.30;2150.40;;;;;;4996727;28;20037;-88
2021/06/06 01:29:56;;;;;;;8.13;6.97;;;487.20;2176.00;;;;;;4993373;28;20057;-87
2021/06/06 01:32:40;;;;;;;9.60;7.10;;;487.20;2176.00;;;;;;4998226;28;20026;-86
2021/06/06 01:35:15;;;;;;;9.95;6.40;;;487.20;2176.00;;;;;;4996615;28;20034;-87
2021/06/06 01:37:58;;;;;;;13.27;7.68;;;487.10;2176.00;;;;;;4995299;28;20030;-88
2021/06/06 01:40:27;;;;;;;11.60;6.55;;;487.10;2176.00;;;;;;5014234;28;20038;-89
2021/06/06 01:42:59;;;;;;;7.32;6.35;;;487.10;2176.00;;;;;;4998229;28;20038;-89
2021/06/06 01:45:38;;;;;;;8.73;6.47;;;487.10;2176.00;;;;;;4998083;28;20521;-88
2021/06/06 01:48:11;;;;;;;15.77;6.43;;;487.10;2201.60;;;;;;5013686;28;20076;-88
2021/06/06 01:50:45;;;;;;;11.85;7.85;;;487.10;2201.60;;;;;;5002439;28;20018;-86
2021/06/06 01:53:12;;;;;;;13.25;7.18;;;487.00;2201.60;;;;;;4990980;28;20058;-88
2021/06/06 01:55:46;;;;;;;8.60;6.85;;;487.00;2201.60;;;;;;5073912;28;20039;-87
2021/06/06 01:58:13;;;;;;;9.52;6.10;;;487.00;2201.60;;;;;;5080446;28;20907;-88
2021/06/06 02:00:49;;;;;;;11.18;6.68;;;487.00;2227.20;;;;;;5098201;28;20035;-87
2021/06/06 02:03:15;;;;;;;8.82;6.85;;;486.90;2227.20;;;;;;5090854;28;20024;-86
2021/06/06 02:05:41;;;;;;;7.00;6.35;;;486.90;2227.20;;;;;;5082516;28;20024;-87
2021/06/06 02:08:11;;;;;;;11.73;6.60;;;487.00;2227.20;;;;;;5094208;28;20025;-87
2021/06/06 02:10:45;;;;;;;10.27;7.07;;;486.80;2227.20;;;;;;5087031;28;20024;-87
2021/06/06 02:13:22;;;;;;;13.55;7.47;;;486.90;2227.20;;;;;;5095964;28;20024;-87
2021/06/06 02:15:52;;;;;;;10.82;6.82;;;486.70;2252.80;;;;;;5096654;28;20127;-87
2021/06/06 02:18:18;;;;;;;11.40;7.55;;;486.60;2278.40;;;;;;5092007;28;20586;-88
2021/06/06 02:20:47;;;;;;;10.88;6.88;;;486.70;2252.80;;;;;;5097740;28;20024;-86
2021/06/06 02:23:18;;;;;;;12.93;8.15;;;486.60;2278.40;;;;;;5095179;28;20024;-86
2021/06/06 02:25:44;;;;;;;10.23;8.23;;;486.60;2278.40;;;;;;5102013;28;20043;-85
2021/06/06 02:28:22;;;;;;;10.85;8.35;;;486.70;2252.80;;;;;;5102004;28;20095;-86
2021/06/06 02:31:09;;;;;;;14.00;8.35;;;486.90;2252.80;;;;;;5098564;28;20047;-87
2021/06/06 02:33:36;;;;;;;;;;;486.90;2227.20;;;;;;5100271;28;20023;-87
2021/06/06 02:36:06;;;;;;;14.30;10.05;;;487.00;2227.20;;;;;;5108086;28;19904;-88
2021/06/06 02:38:38;;;;;;;21.30;11.05;;;487.10;2227.20;;;;;;5098114;28;20027;-88
2021/06/06 02:41:18;;;;;;;12.50;9.93;;;487.10;2227.20;;;;;;5113951;28;20035;-87
2021/06/06 02:44:02;;;;;;;14.10;8.75;;;487.20;2227.20;;;;;;5080231;28;20032;-87
2021/06/06 02:46:29;;;;;;;8.82;6.78;;;487.20;2227.20;;;;;;5094153;28;20027;-88
2021/06/06 02:49:02;;;;;;;12.23;7.80;;;487.30;2227.20;;;;;;5094101;28;20051;-87
2021/06/06 02:51:28;;;;;;;12.07;8.60;;;487.30;2227.20;;;;;;5096930;28;20495;-87
2021/06/06 02:54:00;;;;;;;10.40;8.88;;;487.30;2201.60;;;;;;5087919;28;20028;-88
2021/06/06 02:56:42;;;;;;;11.45;9.30;;;512.00;2201.60;;;;;;5077238;28;20020;-89
2021/06/06 02:59:34;;;;;;;14.75;9.38;;;512.00;2201.60;;;;;;5094200;28;20023;-89
2021/06/06 03:02:14;;;;;;;8.60;7.32;;;512.00;2201.60;;;;;;5059931;28;20040;-89
2021/06/06 03:04:46;;;;;;;13.13;7.18;;;512.00;2201.60;;;;;;5086493;28;20392;-87
2021/06/06 03:07:27;;;;;;;14.90;7.20;;;512.00;2201.60;;;;;;5084399;28;20127;-88
2021/06/06 03:09:53;;;;;;;9.40;7.53;;;512.00;2201.60;;;;;;5091892;28;20047;-89
2021/06/06 03:12:21;;;;;;;10.57;7.70;;;512.00;2201.60;;;;;;5110972;28;20024;-89
2021/06/06 03:14:49;;;;;;;11.25;7.70;;;512.00;2201.60;;;;;;5097416;28;20028;-89
2021/06/06 03:17:21;;;;;;;11.30;7.97;;;512.00;2201.60;;;;;;5099421;28;20063;-89
2021/06/06 03:19:50;;;;;;;12.05;7.70;;;512.00;2201.60;;;;;;5088344;28;20057;-90
2021/06/06 03:22:20;;;;;;;14.40;9.68;;;512.00;2201.60;;;;;;5092946;28;20027;-88
2021/06/06 03:25:04;;;;;;;11.73;9.32;;;487.30;2227.20;;;;;;5093892;28;20064;-86
2021/06/06 03:27:38;;;;;;;13.15;9.10;;;486.90;2252.80;;;;;;5102627;28;20491;-86
2021/06/06 03:30:41;;;;;;;14.73;10.85;;;486.90;2252.80;;;;;;5083067;28;20484;-85
2021/06/06 03:33:17;;;;;;;11.00;8.48;;;486.90;2252.80;;;;;;5083089;28;20107;-85
2021/06/06 03:35:43;;;;;;;11.40;8.48;;;486.90;2227.20;;;;;;5095758;28;20020;-85
2021/06/06 03:38:11;;;;;;;10.63;8.90;;;487.00;2201.60;;;;;;5103111;28;20161;-86
2021/06/06 03:40:42;;;;;;;12.65;8.52;;;487.00;2201.60;;;;;;5088376;28;20055;-85
2021/06/06 03:43:10;;;;;;;10.48;6.97;;;487.10;2201.60;;;;;;5102040;28;20492;-85
2021/06/06 03:45:36;;;;;;;13.38;9.05;;;487.10;2176.00;;;;;;5102823;28;20039;-84
2021/06/06 03:48:01;;;;;;;11.93;8.10;;;487.00;2176.00;;;;;;5082970;28;20039;-84
2021/06/06 03:50:30;;;;;;;10.38;8.30;;;487.00;2201.60;;;;;;5097038;28;20051;-86
2021/06/06 03:52:55;;;;;;;15.45;8.80;;;487.00;2176.00;;;;;;5092033;28;20024;-85
2021/06/06 03:55:22;;;;;;;11.27;8.63;;;487.10;2176.00;;;;;;5092743;28;20480;-85
2021/06/06 03:57:49;;;;;;;12.38;8.60;;;487.10;2176.00;;;;;;5090896;28;20020;-86
2021/06/06 04:00:20;;;;;;;11.40;9.63;;;487.10;2176.00;;;;;;5087949;28;20052;-86
2021/06/06 04:02:46;;;;;;;10.60;8.18;;;487.00;2176.00;;;;;;5089298;28;20035;-86
2021/06/06 04:05:13;;;;;;;11.77;7.95;;;487.00;2176.00;;;;;;5080613;28;20036;-85
2021/06/06 04:07:39;;;;;;;12.05;8.55;;;487.10;2176.00;;;;;;5080672;28;20048;-85
2021/06/06 04:10:06;;;;;;;13.32;7.63;;;487.00;2176.00;;;;;;5089372;28;20020;-85
2021/06/06 04:12:31;;;;;;;14.70;8.80;;;487.10;2150.40;;;;;;5091662;28;20107;-85
2021/06/06 04:14:57;;;;;;;8.57;7.65;;;487.10;2150.40;;;;;;5092201;28;20111;-85
2021/06/06 04:17:24;;;;;;;10.93;7.82;;;487.10;2176.00;;;;;;5079574;28;20071;-85
2021/06/06 04:19:50;;;;;;;13.23;8.90;;;487.10;2176.00;;;;;;5091084;28;20438;-85
2021/06/06 04:22:15;;;;;;;12.27;8.95;;;487.20;2176.00;;;;;;5091279;28;20032;-85
2021/06/06 04:24:42;;;;;;;13.60;8.73;;;487.30;2150.40;;;;;;5089982;28;20519;-85
2021/06/06 04:27:07;;;;;;;10.13;8.50;;;487.30;2150.40;;;;;;5087414;28;20103;-82
2021/06/06 04:29:33;;;;;;;11.07;8.27;;;512.00;2150.40;;;;;;5092535;28;20501;-85
2021/06/06 04:32:04;;;;;;;14.70;8.52;;;512.10;2150.40;;;;;;5085801;28;20025;-84
2021/06/06 04:34:30;;;;;;;10.48;8.15;;;512.20;2150.40;;;;;;5090342;28;20032;-84
2021/06/06 04:36:55;;;;;;;11.68;7.90;;;512.30;2124.80;;;;;;5101665;28;20097;-84
2021/06/06 04:39:21;;;;;;;12.68;8.30;;;512.40;2124.80;;;;;;5091487;28;20074;-84
2021/06/06 04:41:47;;;;;;;13.23;8.10;;;512.50;2099.20;;;;;;5105929;28;20023;-84
2021/06/06 04:44:13;;;;;;;14.15;8.98;;;512.70;2073.60;;;;;;5098586;28;20031;-84
2021/06/06 04:46:39;;;;;;;13.60;8.50;;;512.70;2099.20;;;;;;5087402;28;20020;-85
2021/06/06 04:49:04;;;;;;;10.90;8.68;;;512.90;2073.60;;;;;;5092182;28;20388;-85
2021/06/06 04:51:30;;;;;;;12.30;9.25;;;537.60;2099.20;;;;;;5087940;28;20024;-85
2021/06/06 04:53:56;;;;;;;14.80;7.72;;;537.70;2073.60;;;;;;5085748;28;20029;-85
2021/06/06 04:56:24;;;;;;;16.10;8.18;;;537.80;2073.60;;;;;;5081396;28;20612;-85
2021/06/06 04:58:51;;;;;;;12.95;8.65;;;537.90;2073.60;;;;;;5088284;28;20026;-85
2021/06/06 05:01:16;;;;;;;11.80;7.95;;;538.00;2073.60;;;;;;5088180;28;20028;-85
2021/06/06 05:03:42;;;;;;;15.23;8.48;;;538.10;2073.60;;;;;;5086397;28;20063;-86
2021/06/06 05:06:08;;;;;;;13.40;9.15;;;538.10;2048.00;;;;;;5094346;28;20085;-87
2021/06/06 05:08:34;;;;;;;16.20;8.07;;;538.10;2048.00;;;;;;5076643;28;20378;-87
2021/06/06 05:11:00;;;;;;;10.25;8.10;;;538.40;2022.40;;;;;;5086035;28;20409;-88
2021/06/06 05:13:26;;;;;;;14.07;9.13;;;538.40;2022.40;;;;;;5086410;28;20025;-87
2021/06/06 05:15:54;;;;;;;13.65;8.18;;;563.20;2048.00;;;;;;5085728;28;20036;-88
2021/06/06 05:18:22;;;;;;;10.82;8.32;;;563.30;2048.00;;;;;;5081816;28;20101;-88
2021/06/06 05:20:49;;;;;;;8.82;7.22;;;563.50;2022.40;;;;;;5090618;28;20082;-88
2021/06/06 05:23:18;;;;;;;10.52;8.07;;;563.60;2022.40;;;;;;5087995;28;20028;-87
2021/06/06 05:25:45;;;;;;;17.20;8.45;;;563.70;1996.80;;;;;;5089747;28;20036;-89
2021/06/06 05:28:18;;;;;;;12.65;8.30;;;563.70;2022.40;;;;;;5092875;28;20028;-89
2021/06/06 05:30:44;;;;;;;14.00;8.75;;;563.70;2022.40;;;;;;5089323;28;20036;-86
2021/06/06 05:33:10;;;;;;;13.77;8.23;;;563.90;2022.40;;;;;;5092894;28;20028;-86
2021/06/06 05:35:37;;;;;;;12.75;8.88;;;563.90;1996.80;;;;;;5092051;28;20031;-86
2021/06/06 05:38:04;;;;;;;10.18;7.45;;;563.90;1996.80;;;;;;5087110;28;20044;-86
2021/06/06 05:40:32;;;;;;;13.05;7.90;;;564.00;1971.20;;;;;;5098405;28;20091;-88
2021/06/06 05:42:58;;;;;;;13.60;7.43;;;564.00;1996.80;;;;;;5091881;28;20039;-87
2021/06/06 05:45:25;;;;;;;11.82;7.78;;;564.00;1971.20;;;;;;5113354;28;20036;-89
2021/06/06 05:47:52;;;;;;;9.60;7.88;;;564.10;1971.20;;;;;;5094744;28;20024;-87
2021/06/06 05:50:21;;;;;;;9.82;7.85;;;588.80;1971.20;;;;;;5089157;28;20029;-89
2021/06/06 05:52:48;;;;;;;11.38;8.27;;;588.80;1971.20;;;;;;5098635;28;20024;-89
2021/06/06 05:55:16;;;;;;;14.43;8.07;;;588.90;1971.20;;;;;;5097285;28;20032;-90
2021/06/06 05:57:42;;;;;;;10.57;7.55;;;588.80;1971.20;;;;;;5093366;28;20031;-90
2021/06/06 06:00:12;;;;;;;10.38;8.27;;;588.80;1945.60;;;;;;5106740;28;20023;-86
2021/06/06 06:02:38;;;;;;;11.00;8.57;;;588.80;1971.20;;;;;;5090162;28;20024;-87
2021/06/06 06:05:05;;;;;;;10.45;7.63;;;564.00;1996.80;;;;;;5085440;28;20190;-88
2021/06/06 06:07:31;;;;;;;8.15;6.97;;;564.00;2022.40;;;;;;5088902;28;20047;-88
2021/06/06 06:09:57;;;;;;;15.40;8.75;;;563.90;2048.00;;;;;;5095199;28;20028;-87
2021/06/06 06:12:23;;;;;;;10.43;9.00;;;563.80;2073.60;;;;;;5090582;28;20035;-88
2021/06/06 06:14:49;;;;;;;10.05;8.90;;;563.50;2073.60;;;;;;5088471;28;20023;-88
2021/06/06 06:17:14;;;;;;;13.68;9.70;;;563.50;2073.60;;;;;;5091506;28;20032;-86
2021/06/06 06:19:40;;;;;;;20.30;12.02;;;563.50;2099.20;;;;;;5092924;28;20472;-83
2021/06/06 06:22:06;;;;;;;15.15;10.55;;;563.50;2227.20;;;;;;5079478;28;20060;-83
2021/06/06 06:24:32;;;;;;;13.07;10.35;;;563.20;2278.40;;;;;;5085245;28;20411;-84
2021/06/06 06:26:58;;;;;;;15.40;11.88;;;538.50;2304.00;;;;;;5086155;28;20032;-85
2021/06/06 06:29:24;;;;;;;17.00;11.18;;;538.30;2406.40;;;;;;5085813;28;20577;-85
2021/06/06 06:31:51;;;;;;;16.95;11.27;;;538.40;2406.40;;;;;;5086961;28;20107;-85
2021/06/06 06:34:17;;;;;;;19.55;10.52;;;538.50;2406.40;;;;;;5085241;28;20016;-86
2021/06/06 06:36:43;;;;;;;14.75;12.02;;;563.20;2432.00;;;;;;5105565;28;20135;-89
2021/06/06 06:39:09;;;;;;;19.80;12.95;;;563.40;2432.00;;;;;;5085287;28;20110;-86
2021/06/06 06:41:35;;;;;;;13.38;10.98;;;563.40;2406.40;;;;;;5088672;28;20085;-85
2021/06/06 06:44:01;;;;;;;17.77;11.23;;;563.50;2406.40;;;;;;5087837;28;20024;-86
2021/06/06 06:46:28;;;;;;;15.13;11.27;;;563.50;2355.20;;;;;;5096571;28;20485;-87
2021/06/06 06:48:55;;;;;;;13.10;10.20;;;563.60;2380.80;;;;;;5094330;28;20114;-89
2021/06/06 06:51:23;;;;;;;14.75;9.35;;;563.70;2329.60;;;;;;5095051;28;20492;-89
2021/06/06 06:53:53;;;;;;;11.75;9.45;;;563.70;2329.60;;;;;;5093302;28;20024;-87
2021/06/06 06:56:20;;;;;;;12.05;9.65;;;563.60;2304.00;;;;;;5089522;28;20052;-90
2021/06/06 06:58:46;;;;;;;11.95;10.23;;;563.50;2329.60;;;;;;5089287;28;20024;-92
2021/06/06 07:01:11;;;;;;;11.10;9.73;;;563.50;2355.20;;;;;;5088322;28;20034;-88
2021/06/06 07:03:37;;;;;;;10.52;8.57;;;563.70;2329.60;;;;;;5089292;28;20042;-87
2021/06/06 07:06:06;;;;;;;11.98;8.93;;;563.70;2304.00;;;;;;5086556;28;20044;-87
2021/06/06 07:08:36;;;;;;;11.40;9.07;;;564.00;2278.40;;;;;;5086773;28;20020;-87
2021/06/06 07:11:03;;;;;;;13.30;9.35;;;564.00;2252.80;;;;;;5081486;28;20032;-85
2021/06/06 07:13:28;;;;;;;13.05;9.65;;;588.90;2227.20;;;;;;5082423;28;20025;-87
2021/06/06 07:15:57;;;;;;;14.38;10.00;;;589.00;2227.20;;;;;;5086972;28;20033;-89
2021/06/06 07:18:22;;;;;;;11.80;8.32;;;589.30;2201.60;;;;;;5091724;28;20035;-85
2021/06/06 07:20:54;;;;;;;14.18;10.50;;;589.40;2176.00;;;;;;5072859;28;20048;-87
2021/06/06 07:23:21;;;;;;;11.30;8.95;;;589.50;2176.00;;;;;;5088916;28;20028;-86
2021/06/06 07:25:47;;;;;;;9.50;8.43;;;589.50;2201.60;;;;;;5086023;28;20031;-87
2021/06/06 07:28:18;;;;;;;11.60;9.02;;;589.40;2201.60;;;;;;5095403;28;20041;-90
2021/06/06 07:30:47;;;;;;;11.73;9.32;;;589.30;2227.20;;;;;;5100685;28;20031;-90
2021/06/06 07:33:19;;;;;;;12.10;10.48;;;589.30;2252.80;;;;;;5090370;28;20055;-89
2021/06/06 07:35:45;;;;;;;12.60;9.02;;;589.30;2252.80;;;;;;5093396;28;20054;-89
2021/06/06 07:38:11;;;;;;;14.63;9.20;;;589.20;2227.20;;;;;;5101817;28;20035;-89
2021/06/06 07:40:40;;;;;;;15.85;9.65;;;589.20;2227.20;;;;;;5093048;28;20031;-89
2021/06/06 07:43:07;;;;;;;11.57;9.02;;;588.80;2304.00;;;;;;5092360;28;20040;-90
2021/06/06 07:45:34;;;;;;;11.25;10.05;;;563.80;2355.20;;;;;;5084592;28;20042;-90
2021/06/06 07:48:00;;;;;;;12.65;9.45;;;563.70;2380.80;;;;;;5082486;28;20481;-89
2021/06/06 07:50:29;;;;;;;15.40;9.18;;;563.70;2329.60;;;;;;5091838;28;20027;-90
2021/06/06 07:52:55;;;;;;;15.20;9.82;;;563.50;2355.20;;;;;;5093612;28;20024;-90
2021/06/06 07:55:23;;;;;;;11.73;9.43;;;563.50;2355.20;;;;;;5099525;28;20046;-89
2021/06/06 07:57:49;;;;;;;15.88;11.90;;;563.40;2355.20;;;;;;5093216;28;20560;-89
2021/06/06 08:00:22;;;;;;;14.38;12.88;;;563.40;2380.80;;;;;;5095071;28;20058;-89
2021/06/06 08:02:47;;;;;;;14.73;11.52;;;563.30;2432.00;;;;;;5091367;28;20097;-90
2021/06/06 08:05:15;;;;;;;16.02;11.35;;;563.30;2432.00;;;;;;5081882;28;20385;-89
2021/06/06 08:07:41;;;;;;;15.10;11.77;;;563.20;2406.40;;;;;;5090827;28;20106;-89
2021/06/06 08:10:09;;;;;;;15.48;11.00;;;563.40;2406.40;;;;;;5092025;28;20032;-90
2021/06/06 08:12:35;;;;;;;14.82;12.07;;;563.30;2406.40;;;;;;5082445;28;20051;-89
2021/06/06 08:15:01;;;;;;;19.42;12.48;;;563.40;2406.40;;;;;;5102271;28;21363;-89
2021/06/06 08:17:27;;;;;;;18.40;11.23;;;563.30;2406.40;;;;;;5085956;28;20025;-89
2021/06/06 08:19:53;;;;;;;13.48;11.57;;;563.40;2406.40;;;;;;5096360;28;20032;-89
2021/06/06 08:22:19;;;;;;;15.15;12.00;;;563.50;2406.40;;;;;;5079590;28;20020;-89
2021/06/06 08:24:45;;;;;;;14.82;11.48;;;563.50;2406.40;;;;;;5086069;28;20073;-89
2021/06/06 08:27:11;;;;;;;14.27;12.18;;;563.50;2432.00;;;;;;5102699;28;20488;-87
2021/06/06 08:29:39;;;;;;;13.90;12.38;;;538.50;2406.40;;;;;;5093644;28;20081;-85
2021/06/06 08:32:05;;;;;;;18.83;12.30;;;538.40;2406.40;;;;;;5093645;28;20029;-84
2021/06/06 08:34:31;;;;;;;14.20;12.68;;;563.20;2432.00;;;;;;5087714;28;20056;-84
2021/06/06 08:36:57;;;;;;;20.02;13.45;;;538.50;2406.40;;;;;;5085787;28;20499;-84
2021/06/06 08:39:27;;;;;;;17.38;13.75;;;538.50;2406.40;;;;;;5089303;28;20167;-84
2021/06/06 08:42:05;;;;;;;15.85;11.82;;;563.20;2432.00;;;;;;5087326;28;20099;-85
2021/06/06 08:44:54;;;;;;;14.55;11.20;;;563.40;2432.00;;;;;;5089332;28;20050;-83
2021/06/06 08:47:24;;;;;;;16.67;12.13;;;563.50;2432.00;;;;;;5084153;28;20031;-84
2021/06/06 08:49:57;;;;;;;13.60;10.40;;;563.70;2432.00;;;;;;5084663;28;20020;-83
2021/06/06 08:52:26;;;;;;;14.07;11.00;;;563.60;2355.20;;;;;;5083883;28;20020;-84
2021/06/06 08:55:01;;;;;;;17.55;12.02;;;563.30;2406.40;;;;;;5090708;28;20025;-84
2021/06/06 08:57:47;;;;;;;18.05;12.23;;;563.50;2432.00;;;;;;5086272;28;20070;-85
2021/06/06 09:00:27;;;;;;;14.40;12.23;;;563.70;2432.00;;;;;;5086223;28;20078;-85
2021/06/06 09:03:07;;;;;;;13.15;10.10;;;563.90;2432.00;;;;;;5084498;28;20055;-85
2021/06/06 09:05:36;;;;;;;15.52;12.32;;;564.00;2380.80;;;;;;5091977;28;20024;-86
2021/06/06 09:08:06;;;;;;;18.38;12.15;;;564.10;2355.20;;;;;;5082625;28;20044;-86
2021/06/06 09:10:35;;;;;;;11.85;9.70;;;588.80;2304.00;;;;;;5091535;28;20111;-87
2021/06/06 09:13:07;;;;;;;11.77;10.15;;;588.90;2278.40;;;;;;5088849;28;20112;-87
2021/06/06 09:15:33;;;;;;;16.23;11.88;;;589.00;2355.20;;;;;;5083532;28;20028;-88
2021/06/06 09:18:14;;;;;;;12.00;10.13;;;589.10;2329.60;;;;;;5081538;28;20024;-88
2021/06/06 09:20:43;;;;;;;12.48;9.88;;;589.10;2278.40;;;;;;5108466;28;20031;-89
2021/06/06 09:23:22;;;;;;;12.70;10.32;;;588.80;2304.00;;;;;;5096734;28;20024;-89
2021/06/06 09:26:06;;;;;;;11.40;10.20;;;588.80;2329.60;;;;;;5089664;28;20028;-90
2021/06/06 09:28:35;;;;;;;11.55;10.35;;;564.10;2329.60;;;;;;5098753;28;20016;-90
2021/06/06 09:31:10;;;;;;;12.65;10.25;;;564.10;2380.80;;;;;;5101707;28;20047;-90
2021/06/06 09:33:49;;;;;;;16.27;10.55;;;564.10;2355.20;;;;;;5101695;28;20024;-88
2021/06/06 09:36:22;;;;;;;12.35;10.65;;;564.10;2355.20;;;;;;5086213;28;20035;-85
2021/06/06 09:38:54;;;;;;;11.15;10.00;;;588.80;2380.80;;;;;;5091724;28;20028;-85
2021/06/06 09:41:35;;;;;;;12.32;8.57;;;588.80;2329.60;;;;;;5094114;28;20046;-84
2021/06/06 09:44:30;;;;;;;14.38;10.75;;;588.80;2278.40;;;;;;5091907;28;20031;-85
2021/06/06 09:47:04;;;;;;;12.07;10.85;;;564.10;2304.00;;;;;;5093233;28;20488;-85
2021/06/06 09:49:35;;;;;;;14.48;12.63;;;564.00;2380.80;;;;;;5084876;28;20027;-86
2021/06/06 09:52:27;;;;;;;25.58;19.77;;;564.00;2355.20;;;;;;5096057;28;20016;-87
2021/06/06 09:54:57;;;;;;;25.80;22.77;;;563.70;2380.80;;;;;;5094935;28;20031;-86
2021/06/06 09:57:36;;;;;;;24.65;21.25;;;563.50;2406.40;;;;;;5085513;28;20028;-85
2021/06/06 10:00:22;;;;;;;36.88;29.50;;;563.60;2432.00;;;;;;5085738;28;20055;-84
2021/06/06 10:03:05;;;;;;;27.25;20.77;;;563.70;2432.00;;;;;;5094197;28;20119;-83
2021/06/06 10:05:41;;;;;;;19.63;15.88;;;563.60;2432.00;;;;;;5086629;28;20070;-84
2021/06/06 10:08:27;;;;;;;22.30;14.20;;;563.40;2432.00;;;;;;5083251;28;20044;-85
2021/06/06 10:11:07;;;;;;;21.40;15.98;;;563.40;2432.00;;;;;;5081551;28;20075;-86
2021/06/06 10:13:33;;;;;;;19.60;16.02;;;563.40;2432.00;;;;;;5091039;28;20527;-86
2021/06/06 10:16:05;;;;;;;19.73;14.93;;;563.70;2432.00;;;;;;5090922;28;20024;-86
2021/06/06 10:18:41;;;;;;;26.90;21.02;;;563.90;2432.00;;;;;;5086662;28;20055;-86
2021/06/06 10:21:29;;;;;;;20.90;17.60;;;563.90;2432.00;;;;;;5087212;28;20115;-86
2021/06/06 10:23:59;;;;;;;22.67;17.77;;;563.90;2432.00;;;;;;5087185;28;20071;-86
2021/06/06 10:26:43;;;;;;;24.75;19.92;;;563.70;2432.00;;;;;;5085928;28;20066;-86
2021/06/06 10:29:31;;;;;;;22.05;17.15;;;563.70;2432.00;;;;;;5080818;28;20481;-86
2021/06/06 10:32:28;;;;;;;19.83;16.35;;;563.60;2432.00;;;;;;5083769;28;20078;-86
2021/06/06 10:35:23;;;;;;;;;;;563.40;2432.00;;;;;;5088261;28;20127;-86
2021/06/06 10:37:52;;;;;;;17.83;15.73;;;563.60;2432.00;;;;;;5087461;28;19961;-86
2021/06/06 10:40:35;;;;;;;21.58;16.50;;;563.70;2432.00;;;;;;5089082;28;20028;-84
2021/06/06 10:43:40;;;;;;;18.77;16.85;;;563.60;2432.00;;;;;;5080460;28;20468;-83
2021/06/06 10:46:30;;;;;;;20.17;16.80;;;563.60;2432.00;;;;;;5024512;28;20140;-84
2021/06/06 10:49:20;;;;;;;17.50;15.48;;;563.60;2432.00;;;;;;5020811;28;20033;-83
2021/06/06 10:52:24;;;;;;;17.90;14.35;;;563.40;2432.00;;;;;;5012689;28;20022;-83
2021/06/06 10:54:54;;;;;;;16.92;15.13;;;563.40;2432.00;;;;;;5013220;28;20042;-84
2021/06/06 10:57:25;;;;;;;18.42;15.10;;;563.50;2432.00;;;;;;5012630;28;20081;-83
2021/06/06 10:59:54;;;;;;;16.70;14.75;;;563.60;2432.00;;;;;;5022253;28;20038;-84
2021/06/06 11:02:36;;;;;;;20.13;14.50;;;563.60;2432.00;;;;;;5014144;28;20120;-84
2021/06/06 11:05:58;;;;;;;15.77;12.77;;;563.40;2432.00;;;;;;5024424;28;20034;-85
2021/06/06 11:08:30;;;;;;;19.58;14.85;;;563.40;2432.00;;;;;;4970404;28;20039;-84
2021/06/06 11:11:25;;;;;;;15.30;13.40;;;563.70;2432.00;;;;;;4970615;28;20034;-84
2021/06/06 11:13:53;;;;;;;15.38;13.75;;;563.90;2432.00;;;;;;4953193;28;20083;-85
2021/06/06 11:16:23;;;;;;;19.27;13.90;;;563.90;2432.00;;;;;;4972149;28;20531;-85
2021/06/06 11:18:57;;;;;;;15.88;14.27;;;563.90;2432.00;;;;;;4955638;28;20057;-85
2021/06/06 11:21:58;;;;;;;16.65;12.35;;;564.00;2432.00;;;;;;4973700;28;20080;-85
2021/06/06 11:24:39;;;;;;;17.95;13.98;;;588.90;2432.00;;;;;;4987658;28;20388;-85
2021/06/06 11:27:15;;;;;;;16.73;13.20;;;588.90;2432.00;;;;;;4990215;28;20082;-85
2021/06/06 11:29:40;;;;;;;;;;;588.90;2432.00;;;;;;4989744;28;20525;-83
2021/06/06 11:32:08;;;;;;;16.20;12.50;;;588.90;2432.00;;;;;;4990039;28;19909;-84
2021/06/06 11:34:36;;;;;;;22.48;13.55;;;589.50;2432.00;;;;;;4989570;28;20194;-83
2021/06/06 11:37:20;;;;;;;16.25;13.40;;;614.50;2432.00;;;;;;4973730;28;20030;-83
2021/06/06 11:39:47;;;;;;;11.45;10.27;;;614.90;2406.40;;;;;;4988494;28;20026;-85
2021/06/06 11:42:22;;;;;;;12.15;9.25;;;640.00;2278.40;;;;;;5021360;28;20397;-85
2021/06/06 11:45:18;;;;;;;12.73;8.98;;;640.20;2201.60;;;;;;5080566;28;20048;-85
2021/06/06 11:47:48;;;;;;;9.55;8.52;;;640.40;2176.00;;;;;;5071943;28;20068;-84
2021/06/06 11:50:36;;;;;;;10.88;9.65;;;640.70;2150.40;;;;;;5081392;28;20047;-84
2021/06/06 11:53:42;;;;;;;13.93;9.00;;;640.60;2201.60;;;;;;5084154;28;20023;-84
2021/06/06 11:56:13;;;;;;;12.15;8.20;;;640.70;2201.60;;;;;;5008368;28;20116;-86
2021/06/06 11:58:48;;;;;;;11.00;9.38;;;640.60;2099.20;;;;;;5014134;28;20033;-90
2021/06/06 12:01:22;;;;;;;11.93;8.77;;;665.60;2124.80;;;;;;5009740;28;20030;-90
2021/06/06 12:03:50;;;;;;;14.98;8.73;;;665.90;2099.20;;;;;;4995712;28;20084;-90
2021/06/06 12:06:23;;;;;;;8.80;7.10;;;666.10;2073.60;;;;;;4995067;28;20494;-89
2021/06/06 12:08:53;;;;;;;12.55;8.20;;;666.50;2022.40;;;;;;4998969;28;20560;-91
2021/06/06 12:11:19;;;;;;;7.32;6.57;;;666.20;2048.00;;;;;;4988954;28;20038;-87
2021/06/06 12:13:47;;;;;;;8.25;7.43;;;666.30;1971.20;;;;;;5003008;28;20475;-80
2021/06/06 12:16:19;;;;;;;8.18;7.32;;;666.10;1996.80;;;;;;4986528;28;20034;-91
2021/06/06 12:18:59;;;;;;;7.18;5.60;;;666.30;1996.80;;;;;;5006758;28;20856;-89
2021/06/06 12:21:25;;;;;;;6.72;5.95;;;691.40;1945.60;;;;;;5000743;28;20033;-90
2021/06/06 12:24:05;;;;;;;8.88;5.97;;;691.70;1945.60;;;;;;5014231;28;20050;-90
2021/06/06 12:26:38;;;;;;;7.70;6.00;;;691.80;1920.00;;;;;;4996249;28;20031;-89
2021/06/06 12:29:04;;;;;;;6.45;5.47;;;691.40;1945.60;;;;;;5004581;28;20477;-89